sensor_id;sensor_type;location;lat;lon;timestamp;P1;durP1;ratioP1;P2;durP2;ratioP2
54123;SDS011;55741;53.252;5.788;2024-01-06T00:00:54;14.23;;;10.10;;
54123;SDS011;55741;53.252;5.788;2024-01-06T00:03:20;15.65;;;10.30;;
54123;SDS011;55741;53.252;5.788;2024-01-06T00:05:46;20.38;;;9.43;;
54123;SDS011;55741;53.252;5.788;2024-01-06T00:08:12;12.85;;;9.85;;
54123;SDS011;55741;53.252;5.788;2024-01-06T00:10:39;15.73;;;10.13;;
54123;SDS011;55741;53.252;5.788;2024-01-06T00:13:05;13.20;;;8.90;;
54123;SDS011;55741;53.252;5.788;2024-01-06T00:15:31;13.90;;;9.60;;
54123;SDS011;55741;53.252;5.788;2024-01-06T00:17:57;17.98;;;10.40;;
54123;SDS011;55741;53.252;5.788;2024-01-06T00:20:23;17.17;;;9.98;;
54123;SDS011;55741;53.252;5.788;2024-01-06T00:22:49;15.68;;;9.90;;
54123;SDS011;55741;53.252;5.788;2024-01-06T00:25:15;16.30;;;9.77;;
54123;SDS011;55741;53.252;5.788;2024-01-06T00:27:41;16.50;;;9.88;;
54123;SDS011;55741;53.252;5.788;2024-01-06T00:30:07;26.95;;;11.05;;
54123;SDS011;55741;53.252;5.788;2024-01-06T00:32:33;25.55;;;10.98;;
54123;SDS011;55741;53.252;5.788;2024-01-06T00:34:59;18.38;;;10.32;;
54123;SDS011;55741;53.252;5.788;2024-01-06T00:37:25;14.32;;;10.02;;
54123;SDS011;55741;53.252;5.788;2024-01-06T00:39:51;15.25;;;10.98;;
54123;SDS011;55741;53.252;5.788;2024-01-06T00:42:17;17.83;;;10.98;;
54123;SDS011;55741;53.252;5.788;2024-01-06T00:44:42;15.48;;;10.30;;
54123;SDS011;55741;53.252;5.788;2024-01-06T00:47:10;14.45;;;9.93;;
54123;SDS011;55741;53.252;5.788;2024-01-06T00:49:36;19.70;;;10.40;;
54123;SDS011;55741;53.252;5.788;2024-01-06T00:52:02;16.15;;;10.20;;
54123;SDS011;55741;53.252;5.788;2024-01-06T00:54:29;16.67;;;10.20;;
54123;SDS011;55741;53.252;5.788;2024-01-06T00:56:55;20.38;;;9.95;;
54123;SDS011;55741;53.252;5.788;2024-01-06T00:59:21;20.67;;;10.40;;
54123;SDS011;55741;53.252;5.788;2024-01-06T01:01:46;15.15;;;9.80;;
54123;SDS011;55741;53.252;5.788;2024-01-06T01:04:12;17.50;;;10.50;;
54123;SDS011;55741;53.252;5.788;2024-01-06T01:06:38;14.68;;;9.98;;
54123;SDS011;55741;53.252;5.788;2024-01-06T01:09:04;18.30;;;9.18;;
54123;SDS011;55741;53.252;5.788;2024-01-06T01:11:32;16.05;;;9.98;;
54123;SDS011;55741;53.252;5.788;2024-01-06T01:13:58;13.70;;;9.05;;
54123;SDS011;55741;53.252;5.788;2024-01-06T01:16:23;17.92;;;10.23;;
54123;SDS011;55741;53.252;5.788;2024-01-06T01:18:49;16.77;;;9.75;;
54123;SDS011;55741;53.252;5.788;2024-01-06T01:21:15;21.75;;;9.75;;
54123;SDS011;55741;53.252;5.788;2024-01-06T01:23:41;17.25;;;9.77;;
54123;SDS011;55741;53.252;5.788;2024-01-06T01:26:08;19.15;;;9.85;;
54123;SDS011;55741;53.252;5.788;2024-01-06T01:28:34;18.63;;;9.32;;
54123;SDS011;55741;53.252;5.788;2024-01-06T01:31:00;17.38;;;10.38;;
54123;SDS011;55741;53.252;5.788;2024-01-06T01:33:26;15.20;;;9.00;;
54123;SDS011;55741;53.252;5.788;2024-01-06T01:36:12;15.07;;;8.93;;
54123;SDS011;55741;53.252;5.788;2024-01-06T01:38:38;16.50;;;9.63;;
54123;SDS011;55741;53.252;5.788;2024-01-06T01:41:04;19.42;;;9.27;;
54123;SDS011;55741;53.252;5.788;2024-01-06T01:43:30;16.65;;;10.30;;
54123;SDS011;55741;53.252;5.788;2024-01-06T01:45:56;21.33;;;10.10;;
54123;SDS011;55741;53.252;5.788;2024-01-06T01:48:23;15.57;;;9.88;;
54123;SDS011;55741;53.252;5.788;2024-01-06T01:50:50;14.43;;;10.88;;
54123;SDS011;55741;53.252;5.788;2024-01-06T01:53:17;27.50;;;10.52;;
54123;SDS011;55741;53.252;5.788;2024-01-06T01:55:44;20.95;;;11.38;;
54123;SDS011;55741;53.252;5.788;2024-01-06T01:58:12;21.05;;;11.40;;
54123;SDS011;55741;53.252;5.788;2024-01-06T02:00:39;20.52;;;11.07;;
54123;SDS011;55741;53.252;5.788;2024-01-06T02:03:05;17.67;;;11.07;;
54123;SDS011;55741;53.252;5.788;2024-01-06T02:05:32;28.02;;;12.07;;
54123;SDS011;55741;53.252;5.788;2024-01-06T02:07:58;26.17;;;11.23;;
54123;SDS011;55741;53.252;5.788;2024-01-06T02:10:44;20.65;;;11.80;;
54123;SDS011;55741;53.252;5.788;2024-01-06T02:13:12;21.50;;;12.23;;
54123;SDS011;55741;53.252;5.788;2024-01-06T02:15:38;20.88;;;12.07;;
54123;SDS011;55741;53.252;5.788;2024-01-06T02:18:05;25.60;;;12.82;;
54123;SDS011;55741;53.252;5.788;2024-01-06T02:20:31;24.77;;;11.48;;
54123;SDS011;55741;53.252;5.788;2024-01-06T02:22:57;16.75;;;11.55;;
54123;SDS011;55741;53.252;5.788;2024-01-06T02:25:24;20.63;;;11.38;;
54123;SDS011;55741;53.252;5.788;2024-01-06T02:27:50;24.38;;;12.15;;
54123;SDS011;55741;53.252;5.788;2024-01-06T02:30:16;18.45;;;11.60;;
54123;SDS011;55741;53.252;5.788;2024-01-06T02:32:42;20.80;;;12.15;;
54123;SDS011;55741;53.252;5.788;2024-01-06T02:35:08;17.50;;;11.80;;
54123;SDS011;55741;53.252;5.788;2024-01-06T02:37:34;20.80;;;10.95;;
54123;SDS011;55741;53.252;5.788;2024-01-06T02:39:59;19.20;;;11.20;;
54123;SDS011;55741;53.252;5.788;2024-01-06T02:42:25;19.92;;;10.50;;
54123;SDS011;55741;53.252;5.788;2024-01-06T02:44:51;16.52;;;10.20;;
54123;SDS011;55741;53.252;5.788;2024-01-06T02:47:17;14.13;;;11.02;;
54123;SDS011;55741;53.252;5.788;2024-01-06T02:49:43;16.73;;;10.52;;
54123;SDS011;55741;53.252;5.788;2024-01-06T02:52:09;11.60;;;9.10;;
54123;SDS011;55741;53.252;5.788;2024-01-06T02:54:34;19.55;;;9.95;;
54123;SDS011;55741;53.252;5.788;2024-01-06T02:57:00;18.67;;;11.35;;
54123;SDS011;55741;53.252;5.788;2024-01-06T02:59:26;14.50;;;11.32;;
54123;SDS011;55741;53.252;5.788;2024-01-06T03:01:52;23.52;;;10.77;;
54123;SDS011;55741;53.252;5.788;2024-01-06T03:04:17;19.73;;;10.23;;
54123;SDS011;55741;53.252;5.788;2024-01-06T03:06:44;24.20;;;10.13;;
54123;SDS011;55741;53.252;5.788;2024-01-06T03:09:11;19.58;;;10.15;;
54123;SDS011;55741;53.252;5.788;2024-01-06T03:11:37;20.27;;;9.98;;
54123;SDS011;55741;53.252;5.788;2024-01-06T03:14:04;17.17;;;10.48;;
54123;SDS011;55741;53.252;5.788;2024-01-06T03:16:30;16.27;;;9.60;;
54123;SDS011;55741;53.252;5.788;2024-01-06T03:18:56;23.27;;;10.57;;
54123;SDS011;55741;53.252;5.788;2024-01-06T03:21:22;18.15;;;9.23;;
54123;SDS011;55741;53.252;5.788;2024-01-06T03:23:48;11.00;;;7.97;;
54123;SDS011;55741;53.252;5.788;2024-01-06T03:29:19;12.60;;;9.05;;
54123;SDS011;55741;53.252;5.788;2024-01-06T03:31:45;18.27;;;9.55;;
54123;SDS011;55741;53.252;5.788;2024-01-06T03:34:11;20.60;;;10.75;;
54123;SDS011;55741;53.252;5.788;2024-01-06T03:36:37;16.80;;;9.63;;
54123;SDS011;55741;53.252;5.788;2024-01-06T03:39:04;17.83;;;10.07;;
54123;SDS011;55741;53.252;5.788;2024-01-06T03:41:30;21.42;;;11.05;;
54123;SDS011;55741;53.252;5.788;2024-01-06T03:43:56;20.15;;;9.85;;
54123;SDS011;55741;53.252;5.788;2024-01-06T03:46:22;20.70;;;9.57;;
54123;SDS011;55741;53.252;5.788;2024-01-06T03:48:48;24.42;;;10.10;;
54123;SDS011;55741;53.252;5.788;2024-01-06T03:51:14;18.20;;;9.20;;
54123;SDS011;55741;53.252;5.788;2024-01-06T03:53:40;20.52;;;9.88;;
54123;SDS011;55741;53.252;5.788;2024-01-06T03:56:26;19.65;;;9.02;;
54123;SDS011;55741;53.252;5.788;2024-01-06T03:58:52;16.75;;;8.93;;
54123;SDS011;55741;53.252;5.788;2024-01-06T04:01:18;21.40;;;10.00;;
54123;SDS011;55741;53.252;5.788;2024-01-06T04:03:43;21.48;;;10.15;;
54123;SDS011;55741;53.252;5.788;2024-01-06T04:06:29;16.00;;;9.45;;
54123;SDS011;55741;53.252;5.788;2024-01-06T04:08:57;15.60;;;8.95;;
54123;SDS011;55741;53.252;5.788;2024-01-06T04:11:23;13.93;;;8.30;;
54123;SDS011;55741;53.252;5.788;2024-01-06T04:13:49;21.15;;;10.32;;
54123;SDS011;55741;53.252;5.788;2024-01-06T04:16:16;17.98;;;9.68;;
54123;SDS011;55741;53.252;5.788;2024-01-06T04:18:42;17.60;;;9.48;;
54123;SDS011;55741;53.252;5.788;2024-01-06T04:21:08;20.73;;;9.18;;
54123;SDS011;55741;53.252;5.788;2024-01-06T04:23:34;16.00;;;8.95;;
54123;SDS011;55741;53.252;5.788;2024-01-06T04:26:00;16.25;;;9.93;;
54123;SDS011;55741;53.252;5.788;2024-01-06T04:28:26;25.40;;;10.32;;
54123;SDS011;55741;53.252;5.788;2024-01-06T04:30:53;14.30;;;8.73;;
54123;SDS011;55741;53.252;5.788;2024-01-06T04:33:18;15.85;;;9.55;;
54123;SDS011;55741;53.252;5.788;2024-01-06T04:35:44;15.95;;;8.52;;
54123;SDS011;55741;53.252;5.788;2024-01-06T04:38:10;19.17;;;9.13;;
54123;SDS011;55741;53.252;5.788;2024-01-06T04:40:36;21.70;;;10.05;;
54123;SDS011;55741;53.252;5.788;2024-01-06T04:43:02;15.32;;;9.13;;
54123;SDS011;55741;53.252;5.788;2024-01-06T04:45:28;15.52;;;9.25;;
54123;SDS011;55741;53.252;5.788;2024-01-06T04:47:54;18.13;;;9.35;;
54123;SDS011;55741;53.252;5.788;2024-01-06T04:50:20;26.52;;;9.82;;
54123;SDS011;55741;53.252;5.788;2024-01-06T04:53:06;21.50;;;10.57;;
54123;SDS011;55741;53.252;5.788;2024-01-06T04:55:32;19.10;;;10.45;;
54123;SDS011;55741;53.252;5.788;2024-01-06T04:57:57;22.95;;;9.55;;
54123;SDS011;55741;53.252;5.788;2024-01-06T05:00:23;18.05;;;8.82;;
54123;SDS011;55741;53.252;5.788;2024-01-06T05:03:10;21.42;;;9.52;;
54123;SDS011;55741;53.252;5.788;2024-01-06T05:05:36;17.48;;;9.20;;
54123;SDS011;55741;53.252;5.788;2024-01-06T05:08:02;19.48;;;9.35;;
54123;SDS011;55741;53.252;5.788;2024-01-06T05:10:28;21.70;;;8.88;;
54123;SDS011;55741;53.252;5.788;2024-01-06T05:12:54;14.60;;;9.80;;
54123;SDS011;55741;53.252;5.788;2024-01-06T05:15:20;18.95;;;9.90;;
54123;SDS011;55741;53.252;5.788;2024-01-06T05:18:07;16.80;;;9.32;;
54123;SDS011;55741;53.252;5.788;2024-01-06T05:20:33;25.90;;;9.80;;
54123;SDS011;55741;53.252;5.788;2024-01-06T05:22:59;20.10;;;9.57;;
54123;SDS011;55741;53.252;5.788;2024-01-06T05:25:24;21.15;;;9.90;;
54123;SDS011;55741;53.252;5.788;2024-01-06T05:27:50;18.90;;;9.85;;
54123;SDS011;55741;53.252;5.788;2024-01-06T05:30:16;22.00;;;10.38;;
54123;SDS011;55741;53.252;5.788;2024-01-06T05:32:43;23.83;;;9.57;;
54123;SDS011;55741;53.252;5.788;2024-01-06T05:35:09;18.63;;;9.93;;
54123;SDS011;55741;53.252;5.788;2024-01-06T05:37:35;18.60;;;9.40;;
54123;SDS011;55741;53.252;5.788;2024-01-06T05:40:20;24.35;;;9.98;;
54123;SDS011;55741;53.252;5.788;2024-01-06T05:42:46;18.90;;;9.98;;
54123;SDS011;55741;53.252;5.788;2024-01-06T05:45:12;21.70;;;8.95;;
54123;SDS011;55741;53.252;5.788;2024-01-06T05:47:38;17.80;;;9.45;;
54123;SDS011;55741;53.252;5.788;2024-01-06T05:50:04;20.42;;;9.75;;
54123;SDS011;55741;53.252;5.788;2024-01-06T05:52:31;17.88;;;9.40;;
54123;SDS011;55741;53.252;5.788;2024-01-06T05:54:57;21.20;;;9.43;;
54123;SDS011;55741;53.252;5.788;2024-01-06T05:57:23;17.88;;;9.20;;
54123;SDS011;55741;53.252;5.788;2024-01-06T05:59:49;16.25;;;8.90;;
54123;SDS011;55741;53.252;5.788;2024-01-06T06:02:16;20.25;;;10.15;;
54123;SDS011;55741;53.252;5.788;2024-01-06T06:04:42;14.90;;;9.73;;
54123;SDS011;55741;53.252;5.788;2024-01-06T06:07:08;15.43;;;8.82;;
54123;SDS011;55741;53.252;5.788;2024-01-06T06:09:53;20.58;;;9.30;;
54123;SDS011;55741;53.252;5.788;2024-01-06T06:12:19;24.20;;;10.27;;
54123;SDS011;55741;53.252;5.788;2024-01-06T06:14:45;27.25;;;9.13;;
54123;SDS011;55741;53.252;5.788;2024-01-06T06:17:11;17.30;;;9.10;;
54123;SDS011;55741;53.252;5.788;2024-01-06T06:19:38;20.33;;;9.02;;
54123;SDS011;55741;53.252;5.788;2024-01-06T06:22:04;18.27;;;8.63;;
54123;SDS011;55741;53.252;5.788;2024-01-06T06:24:30;19.40;;;9.20;;
54123;SDS011;55741;53.252;5.788;2024-01-06T06:26:56;23.27;;;9.20;;
54123;SDS011;55741;53.252;5.788;2024-01-06T06:29:22;22.85;;;9.27;;
54123;SDS011;55741;53.252;5.788;2024-01-06T06:32:07;15.95;;;8.65;;
54123;SDS011;55741;53.252;5.788;2024-01-06T06:34:33;21.35;;;9.20;;
54123;SDS011;55741;53.252;5.788;2024-01-06T06:36:59;18.80;;;9.05;;
54123;SDS011;55741;53.252;5.788;2024-01-06T06:39:25;24.02;;;9.88;;
54123;SDS011;55741;53.252;5.788;2024-01-06T06:41:52;24.63;;;8.48;;
54123;SDS011;55741;53.252;5.788;2024-01-06T06:44:18;25.15;;;9.18;;
54123;SDS011;55741;53.252;5.788;2024-01-06T06:46:44;19.33;;;9.52;;
54123;SDS011;55741;53.252;5.788;2024-01-06T06:49:09;23.55;;;9.80;;
54123;SDS011;55741;53.252;5.788;2024-01-06T06:51:35;14.02;;;9.48;;
54123;SDS011;55741;53.252;5.788;2024-01-06T06:54:01;17.35;;;9.13;;
54123;SDS011;55741;53.252;5.788;2024-01-06T06:56:27;26.10;;;10.30;;
54123;SDS011;55741;53.252;5.788;2024-01-06T06:58:53;22.13;;;9.63;;
54123;SDS011;55741;53.252;5.788;2024-01-06T07:01:19;18.33;;;9.00;;
54123;SDS011;55741;53.252;5.788;2024-01-06T07:03:45;16.48;;;9.18;;
54123;SDS011;55741;53.252;5.788;2024-01-06T07:06:12;22.77;;;11.32;;
54123;SDS011;55741;53.252;5.788;2024-01-06T07:08:38;15.63;;;9.23;;
54123;SDS011;55741;53.252;5.788;2024-01-06T07:11:04;16.98;;;9.88;;
54123;SDS011;55741;53.252;5.788;2024-01-06T07:13:30;19.40;;;9.77;;
54123;SDS011;55741;53.252;5.788;2024-01-06T07:16:16;25.50;;;9.55;;
54123;SDS011;55741;53.252;5.788;2024-01-06T07:18:41;33.20;;;9.48;;
54123;SDS011;55741;53.252;5.788;2024-01-06T07:21:09;22.95;;;9.40;;
54123;SDS011;55741;53.252;5.788;2024-01-06T07:23:56;20.50;;;11.05;;
54123;SDS011;55741;53.252;5.788;2024-01-06T07:26:22;22.77;;;10.07;;
54123;SDS011;55741;53.252;5.788;2024-01-06T07:28:48;18.02;;;10.43;;
54123;SDS011;55741;53.252;5.788;2024-01-06T07:31:14;25.30;;;10.07;;
54123;SDS011;55741;53.252;5.788;2024-01-06T07:33:40;23.65;;;11.85;;
54123;SDS011;55741;53.252;5.788;2024-01-06T07:36:06;18.73;;;10.38;;
54123;SDS011;55741;53.252;5.788;2024-01-06T07:38:31;17.35;;;11.27;;
54123;SDS011;55741;53.252;5.788;2024-01-06T07:40:57;18.05;;;11.98;;
54123;SDS011;55741;53.252;5.788;2024-01-06T07:43:23;21.35;;;10.20;;
54123;SDS011;55741;53.252;5.788;2024-01-06T07:45:49;19.02;;;10.30;;
54123;SDS011;55741;53.252;5.788;2024-01-06T07:48:16;19.92;;;10.63;;
54123;SDS011;55741;53.252;5.788;2024-01-06T07:50:42;16.65;;;10.05;;
54123;SDS011;55741;53.252;5.788;2024-01-06T07:53:08;17.40;;;10.38;;
54123;SDS011;55741;53.252;5.788;2024-01-06T07:55:34;19.05;;;10.60;;
54123;SDS011;55741;53.252;5.788;2024-01-06T07:58:00;19.70;;;11.05;;
54123;SDS011;55741;53.252;5.788;2024-01-06T08:00:26;21.17;;;10.43;;
54123;SDS011;55741;53.252;5.788;2024-01-06T08:02:51;17.98;;;11.38;;
54123;SDS011;55741;53.252;5.788;2024-01-06T08:05:37;17.60;;;9.48;;
54123;SDS011;55741;53.252;5.788;2024-01-06T08:08:23;13.00;;;9.30;;
54123;SDS011;55741;53.252;5.788;2024-01-06T08:10:49;16.50;;;9.55;;
54123;SDS011;55741;53.252;5.788;2024-01-06T08:13:15;13.93;;;8.43;;
54123;SDS011;55741;53.252;5.788;2024-01-06T08:15:41;11.00;;;8.50;;
54123;SDS011;55741;53.252;5.788;2024-01-06T08:18:07;15.43;;;7.85;;
54123;SDS011;55741;53.252;5.788;2024-01-06T08:20:32;16.92;;;8.52;;
54123;SDS011;55741;53.252;5.788;2024-01-06T08:23:00;13.23;;;8.95;;
54123;SDS011;55741;53.252;5.788;2024-01-06T08:25:26;18.90;;;9.85;;
54123;SDS011;55741;53.252;5.788;2024-01-06T08:27:51;17.42;;;10.15;;
54123;SDS011;55741;53.252;5.788;2024-01-06T08:30:17;14.00;;;10.50;;
54123;SDS011;55741;53.252;5.788;2024-01-06T08:32:44;17.38;;;10.10;;
54123;SDS011;55741;53.252;5.788;2024-01-06T08:35:10;17.23;;;10.23;;
54123;SDS011;55741;53.252;5.788;2024-01-06T08:37:36;29.33;;;11.13;;
54123;SDS011;55741;53.252;5.788;2024-01-06T08:40:02;26.25;;;11.20;;
54123;SDS011;55741;53.252;5.788;2024-01-06T08:42:29;17.67;;;10.55;;
54123;SDS011;55741;53.252;5.788;2024-01-06T08:44:55;25.23;;;12.57;;
54123;SDS011;55741;53.252;5.788;2024-01-06T08:47:21;18.15;;;10.98;;
54123;SDS011;55741;53.252;5.788;2024-01-06T08:49:47;18.35;;;10.88;;
54123;SDS011;55741;53.252;5.788;2024-01-06T08:52:12;21.75;;;11.93;;
54123;SDS011;55741;53.252;5.788;2024-01-06T08:54:38;20.17;;;11.77;;
54123;SDS011;55741;53.252;5.788;2024-01-06T08:57:04;20.75;;;11.00;;
54123;SDS011;55741;53.252;5.788;2024-01-06T08:59:31;18.27;;;10.70;;
54123;SDS011;55741;53.252;5.788;2024-01-06T09:01:57;20.55;;;12.05;;
54123;SDS011;55741;53.252;5.788;2024-01-06T09:04:23;20.35;;;12.50;;
54123;SDS011;55741;53.252;5.788;2024-01-06T09:06:49;22.73;;;12.95;;
54123;SDS011;55741;53.252;5.788;2024-01-06T09:09:16;17.85;;;12.07;;
54123;SDS011;55741;53.252;5.788;2024-01-06T09:11:42;22.92;;;12.07;;
54123;SDS011;55741;53.252;5.788;2024-01-06T09:14:09;22.55;;;12.43;;
54123;SDS011;55741;53.252;5.788;2024-01-06T09:16:38;28.27;;;11.57;;
54123;SDS011;55741;53.252;5.788;2024-01-06T09:19:23;20.33;;;9.75;;
54123;SDS011;55741;53.252;5.788;2024-01-06T09:21:49;19.80;;;10.32;;
54123;SDS011;55741;53.252;5.788;2024-01-06T09:24:37;15.88;;;9.73;;
54123;SDS011;55741;53.252;5.788;2024-01-06T09:27:02;18.63;;;10.55;;
54123;SDS011;55741;53.252;5.788;2024-01-06T09:29:28;17.88;;;10.90;;
54123;SDS011;55741;53.252;5.788;2024-01-06T09:31:54;17.30;;;10.55;;
54123;SDS011;55741;53.252;5.788;2024-01-06T09:34:20;19.90;;;10.57;;
54123;SDS011;55741;53.252;5.788;2024-01-06T09:36:46;15.50;;;9.85;;
54123;SDS011;55741;53.252;5.788;2024-01-06T09:39:12;16.42;;;11.05;;
54123;SDS011;55741;53.252;5.788;2024-01-06T09:41:38;16.65;;;9.90;;
54123;SDS011;55741;53.252;5.788;2024-01-06T09:44:04;22.08;;;10.85;;
54123;SDS011;55741;53.252;5.788;2024-01-06T09:46:30;21.52;;;11.05;;
54123;SDS011;55741;53.252;5.788;2024-01-06T09:48:56;22.85;;;12.80;;
54123;SDS011;55741;53.252;5.788;2024-01-06T09:51:23;21.20;;;12.27;;
54123;SDS011;55741;53.252;5.788;2024-01-06T09:53:59;28.98;;;13.60;;
54123;SDS011;55741;53.252;5.788;2024-01-06T09:56:46;17.42;;;11.70;;
54123;SDS011;55741;53.252;5.788;2024-01-06T09:59:13;17.00;;;11.45;;
54123;SDS011;55741;53.252;5.788;2024-01-06T10:01:40;21.85;;;12.13;;
54123;SDS011;55741;53.252;5.788;2024-01-06T10:04:06;22.30;;;13.07;;
54123;SDS011;55741;53.252;5.788;2024-01-06T10:06:32;19.65;;;12.55;;
54123;SDS011;55741;53.252;5.788;2024-01-06T10:08:58;20.90;;;13.30;;
54123;SDS011;55741;53.252;5.788;2024-01-06T10:11:25;22.65;;;12.77;;
54123;SDS011;55741;53.252;5.788;2024-01-06T10:13:52;20.55;;;12.90;;
54123;SDS011;55741;53.252;5.788;2024-01-06T10:16:19;18.95;;;11.27;;
54123;SDS011;55741;53.252;5.788;2024-01-06T10:18:45;21.45;;;11.95;;
54123;SDS011;55741;53.252;5.788;2024-01-06T10:21:12;22.88;;;12.40;;
54123;SDS011;55741;53.252;5.788;2024-01-06T10:23:39;19.42;;;11.48;;
54123;SDS011;55741;53.252;5.788;2024-01-06T10:26:06;21.02;;;11.27;;
54123;SDS011;55741;53.252;5.788;2024-01-06T10:28:32;20.60;;;12.80;;
54123;SDS011;55741;53.252;5.788;2024-01-06T10:30:58;21.88;;;12.05;;
54123;SDS011;55741;53.252;5.788;2024-01-06T10:33:25;20.17;;;12.23;;
54123;SDS011;55741;53.252;5.788;2024-01-06T10:35:52;18.83;;;11.30;;
54123;SDS011;55741;53.252;5.788;2024-01-06T10:38:20;24.50;;;12.07;;
54123;SDS011;55741;53.252;5.788;2024-01-06T10:40:59;23.25;;;12.65;;
54123;SDS011;55741;53.252;5.788;2024-01-06T10:43:28;16.50;;;11.00;;
54123;SDS011;55741;53.252;5.788;2024-01-06T10:45:59;20.65;;;10.88;;
54123;SDS011;55741;53.252;5.788;2024-01-06T10:48:32;19.02;;;11.05;;
54123;SDS011;55741;53.252;5.788;2024-01-06T10:51:00;22.23;;;11.55;;
54123;SDS011;55741;53.252;5.788;2024-01-06T10:53:33;28.77;;;11.98;;
54123;SDS011;55741;53.252;5.788;2024-01-06T10:56:03;20.80;;;10.55;;
54123;SDS011;55741;53.252;5.788;2024-01-06T10:58:32;20.50;;;10.73;;
54123;SDS011;55741;53.252;5.788;2024-01-06T11:00:58;26.40;;;11.27;;
54123;SDS011;55741;53.252;5.788;2024-01-06T11:03:25;21.25;;;11.65;;
54123;SDS011;55741;53.252;5.788;2024-01-06T11:05:54;21.20;;;11.95;;
54123;SDS011;55741;53.252;5.788;2024-01-06T11:08:20;20.83;;;12.52;;
54123;SDS011;55741;53.252;5.788;2024-01-06T11:10:47;22.70;;;11.60;;
54123;SDS011;55741;53.252;5.788;2024-01-06T11:13:14;21.77;;;11.05;;
54123;SDS011;55741;53.252;5.788;2024-01-06T11:15:49;19.50;;;10.70;;
54123;SDS011;55741;53.252;5.788;2024-01-06T11:26:33;17.67;;;10.32;;
54123;SDS011;55741;53.252;5.788;2024-01-06T11:29:00;15.93;;;9.95;;
54123;SDS011;55741;53.252;5.788;2024-01-06T11:31:36;17.65;;;10.73;;
54123;SDS011;55741;53.252;5.788;2024-01-06T11:34:12;23.25;;;9.98;;
54123;SDS011;55741;53.252;5.788;2024-01-06T11:36:40;15.35;;;9.77;;
54123;SDS011;55741;53.252;5.788;2024-01-06T11:39:08;15.40;;;9.93;;
54123;SDS011;55741;53.252;5.788;2024-01-06T11:42:05;18.30;;;10.15;;
54123;SDS011;55741;53.252;5.788;2024-01-06T11:44:43;18.15;;;10.60;;
54123;SDS011;55741;53.252;5.788;2024-01-06T11:47:11;17.85;;;9.75;;
54123;SDS011;55741;53.252;5.788;2024-01-06T11:49:38;19.52;;;9.82;;
54123;SDS011;55741;53.252;5.788;2024-01-06T11:52:04;19.25;;;9.00;;
54123;SDS011;55741;53.252;5.788;2024-01-06T11:54:30;16.50;;;10.20;;
54123;SDS011;55741;53.252;5.788;2024-01-06T11:56:57;15.30;;;9.45;;
54123;SDS011;55741;53.252;5.788;2024-01-06T11:59:23;21.88;;;8.63;;
54123;SDS011;55741;53.252;5.788;2024-01-06T12:01:49;14.30;;;8.68;;
54123;SDS011;55741;53.252;5.788;2024-01-06T12:04:36;14.18;;;7.97;;
54123;SDS011;55741;53.252;5.788;2024-01-06T12:07:05;12.00;;;8.52;;
54123;SDS011;55741;53.252;5.788;2024-01-06T12:09:32;17.98;;;8.05;;
54123;SDS011;55741;53.252;5.788;2024-01-06T12:12:01;11.63;;;7.88;;
54123;SDS011;55741;53.252;5.788;2024-01-06T12:14:29;14.02;;;8.43;;
54123;SDS011;55741;53.252;5.788;2024-01-06T12:16:55;13.20;;;8.13;;
54123;SDS011;55741;53.252;5.788;2024-01-06T12:19:25;13.38;;;8.35;;
54123;SDS011;55741;53.252;5.788;2024-01-06T12:21:51;14.68;;;8.25;;
54123;SDS011;55741;53.252;5.788;2024-01-06T12:24:18;16.00;;;8.57;;
54123;SDS011;55741;53.252;5.788;2024-01-06T12:26:47;14.82;;;8.00;;
54123;SDS011;55741;53.252;5.788;2024-01-06T12:29:14;14.77;;;8.27;;
54123;SDS011;55741;53.252;5.788;2024-01-06T12:31:40;13.73;;;8.52;;
54123;SDS011;55741;53.252;5.788;2024-01-06T12:34:07;32.17;;;14.88;;
54123;SDS011;55741;53.252;5.788;2024-01-06T12:36:39;16.98;;;9.48;;
54123;SDS011;55741;53.252;5.788;2024-01-06T12:39:10;14.95;;;8.23;;
54123;SDS011;55741;53.252;5.788;2024-01-06T12:41:43;14.32;;;8.32;;
54123;SDS011;55741;53.252;5.788;2024-01-06T12:44:09;14.82;;;8.38;;
54123;SDS011;55741;53.252;5.788;2024-01-06T12:46:35;10.95;;;7.80;;
54123;SDS011;55741;53.252;5.788;2024-01-06T12:49:01;12.15;;;8.43;;
54123;SDS011;55741;53.252;5.788;2024-01-06T12:51:27;13.98;;;8.32;;
54123;SDS011;55741;53.252;5.788;2024-01-06T12:53:54;19.58;;;8.50;;
54123;SDS011;55741;53.252;5.788;2024-01-06T12:56:20;12.38;;;8.23;;
54123;SDS011;55741;53.252;5.788;2024-01-06T12:58:46;16.75;;;8.45;;
54123;SDS011;55741;53.252;5.788;2024-01-06T13:01:31;13.20;;;8.18;;
54123;SDS011;55741;53.252;5.788;2024-01-06T13:03:57;12.88;;;8.05;;
54123;SDS011;55741;53.252;5.788;2024-01-06T13:06:25;11.65;;;7.95;;
54123;SDS011;55741;53.252;5.788;2024-01-06T13:08:51;14.13;;;8.02;;
54123;SDS011;55741;53.252;5.788;2024-01-06T13:11:20;14.68;;;8.60;;
54123;SDS011;55741;53.252;5.788;2024-01-06T13:13:46;11.18;;;7.45;;
54123;SDS011;55741;53.252;5.788;2024-01-06T13:16:12;11.77;;;7.43;;
54123;SDS011;55741;53.252;5.788;2024-01-06T13:18:37;15.02;;;7.80;;
54123;SDS011;55741;53.252;5.788;2024-01-06T13:21:03;13.35;;;7.97;;
54123;SDS011;55741;53.252;5.788;2024-01-06T13:23:29;16.85;;;7.95;;
54123;SDS011;55741;53.252;5.788;2024-01-06T13:25:55;11.30;;;7.55;;
54123;SDS011;55741;53.252;5.788;2024-01-06T13:28:24;12.25;;;7.05;;
54123;SDS011;55741;53.252;5.788;2024-01-06T13:30:50;11.35;;;7.00;;
54123;SDS011;55741;53.252;5.788;2024-01-06T13:33:16;10.40;;;7.32;;
54123;SDS011;55741;53.252;5.788;2024-01-06T13:35:42;13.48;;;7.47;;
54123;SDS011;55741;53.252;5.788;2024-01-06T13:38:08;11.23;;;7.47;;
54123;SDS011;55741;53.252;5.788;2024-01-06T13:40:34;11.55;;;7.25;;
54123;SDS011;55741;53.252;5.788;2024-01-06T13:43:00;10.82;;;7.68;;
54123;SDS011;55741;53.252;5.788;2024-01-06T13:45:26;14.10;;;8.15;;
54123;SDS011;55741;53.252;5.788;2024-01-06T13:47:52;11.90;;;7.50;;
54123;SDS011;55741;53.252;5.788;2024-01-06T13:50:18;9.18;;;6.95;;
54123;SDS011;55741;53.252;5.788;2024-01-06T13:52:44;10.85;;;7.80;;
54123;SDS011;55741;53.252;5.788;2024-01-06T13:55:30;11.95;;;7.60;;
54123;SDS011;55741;53.252;5.788;2024-01-06T13:57:56;12.55;;;7.32;;
54123;SDS011;55741;53.252;5.788;2024-01-06T14:00:23;15.15;;;10.27;;
54123;SDS011;55741;53.252;5.788;2024-01-06T14:02:51;17.55;;;9.73;;
54123;SDS011;55741;53.252;5.788;2024-01-06T14:05:17;13.88;;;8.77;;
54123;SDS011;55741;53.252;5.788;2024-01-06T14:07:44;12.70;;;7.60;;
54123;SDS011;55741;53.252;5.788;2024-01-06T14:10:12;13.40;;;7.38;;
54123;SDS011;55741;53.252;5.788;2024-01-06T14:12:39;9.63;;;6.63;;
54123;SDS011;55741;53.252;5.788;2024-01-06T14:15:06;9.25;;;6.45;;
54123;SDS011;55741;53.252;5.788;2024-01-06T14:17:32;12.77;;;6.80;;
54123;SDS011;55741;53.252;5.788;2024-01-06T14:19:58;13.82;;;6.90;;
54123;SDS011;55741;53.252;5.788;2024-01-06T14:22:25;12.73;;;7.00;;
54123;SDS011;55741;53.252;5.788;2024-01-06T14:24:51;12.68;;;7.13;;
54123;SDS011;55741;53.252;5.788;2024-01-06T14:27:17;14.50;;;7.05;;
54123;SDS011;55741;53.252;5.788;2024-01-06T14:29:45;10.15;;;7.55;;
54123;SDS011;55741;53.252;5.788;2024-01-06T14:32:11;11.15;;;7.20;;
54123;SDS011;55741;53.252;5.788;2024-01-06T14:34:38;12.10;;;7.65;;
54123;SDS011;55741;53.252;5.788;2024-01-06T14:37:04;10.25;;;6.32;;
54123;SDS011;55741;53.252;5.788;2024-01-06T14:39:30;9.85;;;6.70;;
54123;SDS011;55741;53.252;5.788;2024-01-06T14:41:56;11.07;;;6.68;;